Terminal Aerodrome Forecast
Issued by NWS

Home | Current Version | Previous Version | Text Only | Print | Product List | Glossary On
Versions: 1 2 3 4 5 6 7 8 9 10 11 12 13 14 15 16 17 18
000
FTAK31 PAFA 172331
TAFAOM
TAF
PAOM 172331Z 1800/1824 30009KT P6SM BKN040
     FM181000 11006KT P6SM SCT040 BKN100
     FM181600 11009KT P6SM BKN040 OVC100
     FM182200 11020G27KT 2SM -SN BR BKN015 OVC040=

USA.gov is the U.S. government's official web portal to all federal, state and local government web resources and services.